sensor_id;sensor_type;location;lat;lon;timestamp;P1;durP1;ratioP1;P2;durP2;ratioP2
28958;SDS011;16066;0.000;0.000;2022-09-09T00:00:55;1.37;;;1.13;;
28958;SDS011;16066;0.000;0.000;2022-09-09T00:06:25;3.73;;;1.80;;
28958;SDS011;16066;0.000;0.000;2022-09-09T00:09:00;4.50;;;1.43;;
28958;SDS011;16066;0.000;0.000;2022-09-09T00:12:21;3.67;;;1.43;;
28958;SDS011;16066;0.000;0.000;2022-09-09T00:14:58;1.87;;;1.30;;
28958;SDS011;16066;0.000;0.000;2022-09-09T00:17:36;2.73;;;1.60;;
28958;SDS011;16066;0.000;0.000;2022-09-09T00:22:40;2.30;;;1.53;;
28958;SDS011;16066;0.000;0.000;2022-09-09T00:25:19;3.10;;;1.50;;
28958;SDS011;16066;0.000;0.000;2022-09-09T00:28:13;3.00;;;1.50;;
28958;SDS011;16066;0.000;0.000;2022-09-09T00:30:45;4.57;;;1.93;;
28958;SDS011;16066;0.000;0.000;2022-09-09T00:33:13;2.23;;;1.40;;
28958;SDS011;16066;0.000;0.000;2022-09-09T00:35:56;3.60;;;1.50;;
28958;SDS011;16066;0.000;0.000;2022-09-09T00:43:40;4.60;;;1.80;;
28958;SDS011;16066;0.000;0.000;2022-09-09T00:54:24;7.60;;;1.50;;
28958;SDS011;16066;0.000;0.000;2022-09-09T00:59:47;1.93;;;1.40;;
28958;SDS011;16066;0.000;0.000;2022-09-09T01:04:55;3.87;;;1.70;;
28958;SDS011;16066;0.000;0.000;2022-09-09T01:07:46;2.40;;;1.60;;
28958;SDS011;16066;0.000;0.000;2022-09-09T01:13:13;4.10;;;1.77;;
28958;SDS011;16066;0.000;0.000;2022-09-09T01:15:47;1.87;;;1.27;;
28958;SDS011;16066;0.000;0.000;2022-09-09T01:18:15;2.40;;;1.27;;
28958;SDS011;16066;0.000;0.000;2022-09-09T01:21:01;3.37;;;1.50;;
28958;SDS011;16066;0.000;0.000;2022-09-09T01:28:43;3.27;;;1.83;;
28958;SDS011;16066;0.000;0.000;2022-09-09T01:31:12;2.13;;;1.37;;
28958;SDS011;16066;0.000;0.000;2022-09-09T01:33:42;2.90;;;1.63;;
28958;SDS011;16066;0.000;0.000;2022-09-09T01:38:46;3.33;;;1.70;;
28958;SDS011;16066;0.000;0.000;2022-09-09T01:41:12;5.13;;;2.10;;
28958;SDS011;16066;0.000;0.000;2022-09-09T01:43:38;2.10;;;1.53;;
28958;SDS011;16066;0.000;0.000;2022-09-09T01:46:03;5.30;;;1.37;;
28958;SDS011;16066;0.000;0.000;2022-09-09T01:48:29;4.67;;;1.57;;
28958;SDS011;16066;0.000;0.000;2022-09-09T01:50:55;2.70;;;1.57;;
28958;SDS011;16066;0.000;0.000;2022-09-09T01:53:22;5.20;;;2.43;;
28958;SDS011;16066;0.000;0.000;2022-09-09T02:01:17;3.20;;;1.73;;
28958;SDS011;16066;0.000;0.000;2022-09-09T02:03:57;5.53;;;1.60;;
28958;SDS011;16066;0.000;0.000;2022-09-09T02:06:33;2.97;;;1.60;;
28958;SDS011;16066;0.000;0.000;2022-09-09T02:09:04;3.53;;;1.83;;
28958;SDS011;16066;0.000;0.000;2022-09-09T02:11:31;2.60;;;1.70;;
28958;SDS011;16066;0.000;0.000;2022-09-09T02:14:18;2.60;;;1.57;;
28958;SDS011;16066;0.000;0.000;2022-09-09T02:16:57;3.73;;;1.93;;
28958;SDS011;16066;0.000;0.000;2022-09-09T02:19:36;2.27;;;1.43;;
28958;SDS011;16066;0.000;0.000;2022-09-09T02:22:11;2.03;;;1.40;;
28958;SDS011;16066;0.000;0.000;2022-09-09T02:24:38;2.40;;;1.30;;
28958;SDS011;16066;0.000;0.000;2022-09-09T02:27:06;6.50;;;1.57;;
28958;SDS011;16066;0.000;0.000;2022-09-09T02:29:34;3.63;;;1.53;;
28958;SDS011;16066;0.000;0.000;2022-09-09T02:32:04;3.57;;;1.50;;
28958;SDS011;16066;0.000;0.000;2022-09-09T02:34:35;4.63;;;1.53;;
28958;SDS011;16066;0.000;0.000;2022-09-09T02:37:06;3.10;;;1.20;;
28958;SDS011;16066;0.000;0.000;2022-09-09T02:39:34;3.37;;;1.50;;
28958;SDS011;16066;0.000;0.000;2022-09-09T02:42:00;2.23;;;1.47;;
28958;SDS011;16066;0.000;0.000;2022-09-09T02:44:26;3.53;;;1.50;;
28958;SDS011;16066;0.000;0.000;2022-09-09T02:58:03;2.50;;;1.53;;
28958;SDS011;16066;0.000;0.000;2022-09-09T03:00:32;4.17;;;2.03;;
28958;SDS011;16066;0.000;0.000;2022-09-09T03:03:00;3.23;;;1.50;;
28958;SDS011;16066;0.000;0.000;2022-09-09T03:05:28;2.83;;;1.33;;
28958;SDS011;16066;0.000;0.000;2022-09-09T03:07:54;2.80;;;1.40;;
28958;SDS011;16066;0.000;0.000;2022-09-09T03:10:19;9.17;;;2.10;;
28958;SDS011;16066;0.000;0.000;2022-09-09T03:12:45;4.80;;;1.47;;
28958;SDS011;16066;0.000;0.000;2022-09-09T03:15:11;3.17;;;1.67;;
28958;SDS011;16066;0.000;0.000;2022-09-09T03:17:38;4.80;;;2.07;;
28958;SDS011;16066;0.000;0.000;2022-09-09T03:20:04;2.57;;;1.47;;
28958;SDS011;16066;0.000;0.000;2022-09-09T03:22:30;3.43;;;1.60;;
28958;SDS011;16066;0.000;0.000;2022-09-09T03:24:56;2.93;;;1.73;;
28958;SDS011;16066;0.000;0.000;2022-09-09T03:27:21;1.90;;;1.30;;
28958;SDS011;16066;0.000;0.000;2022-09-09T03:29:47;2.90;;;1.33;;
28958;SDS011;16066;0.000;0.000;2022-09-09T03:32:16;3.90;;;1.53;;
28958;SDS011;16066;0.000;0.000;2022-09-09T03:34:42;3.50;;;1.40;;
28958;SDS011;16066;0.000;0.000;2022-09-09T03:37:08;4.57;;;1.67;;
28958;SDS011;16066;0.000;0.000;2022-09-09T03:39:34;3.77;;;1.50;;
28958;SDS011;16066;0.000;0.000;2022-09-09T03:42:00;4.80;;;1.87;;
28958;SDS011;16066;0.000;0.000;2022-09-09T03:44:28;5.83;;;1.90;;
28958;SDS011;16066;0.000;0.000;2022-09-09T03:46:55;6.93;;;1.47;;
28958;SDS011;16066;0.000;0.000;2022-09-09T03:49:21;3.47;;;1.60;;
28958;SDS011;16066;0.000;0.000;2022-09-09T03:51:47;3.40;;;1.60;;
28958;SDS011;16066;0.000;0.000;2022-09-09T03:54:13;5.50;;;1.77;;
28958;SDS011;16066;0.000;0.000;2022-09-09T03:56:39;4.60;;;1.93;;
28958;SDS011;16066;0.000;0.000;2022-09-09T03:59:06;4.17;;;1.80;;
28958;SDS011;16066;0.000;0.000;2022-09-09T04:01:33;6.53;;;1.80;;
28958;SDS011;16066;0.000;0.000;2022-09-09T04:03:59;5.03;;;1.90;;
28958;SDS011;16066;0.000;0.000;2022-09-09T04:06:27;6.20;;;1.70;;
28958;SDS011;16066;0.000;0.000;2022-09-09T04:08:53;7.23;;;2.00;;
28958;SDS011;16066;0.000;0.000;2022-09-09T04:11:20;5.77;;;1.70;;
28958;SDS011;16066;0.000;0.000;2022-09-09T04:13:46;3.60;;;1.70;;
28958;SDS011;16066;0.000;0.000;2022-09-09T04:16:12;3.43;;;1.57;;
28958;SDS011;16066;0.000;0.000;2022-09-09T04:18:38;4.07;;;2.00;;
28958;SDS011;16066;0.000;0.000;2022-09-09T04:21:04;6.10;;;1.67;;
28958;SDS011;16066;0.000;0.000;2022-09-09T04:23:31;7.00;;;2.00;;
28958;SDS011;16066;0.000;0.000;2022-09-09T04:25:58;4.57;;;1.60;;
28958;SDS011;16066;0.000;0.000;2022-09-09T04:28:27;3.80;;;1.63;;
28958;SDS011;16066;0.000;0.000;2022-09-09T04:30:54;3.53;;;1.70;;
28958;SDS011;16066;0.000;0.000;2022-09-09T04:33:23;6.07;;;1.83;;
28958;SDS011;16066;0.000;0.000;2022-09-09T04:35:51;2.43;;;1.50;;
28958;SDS011;16066;0.000;0.000;2022-09-09T04:38:19;2.43;;;1.47;;
28958;SDS011;16066;0.000;0.000;2022-09-09T04:40:48;2.80;;;1.67;;
28958;SDS011;16066;0.000;0.000;2022-09-09T04:43:16;4.03;;;1.60;;
28958;SDS011;16066;0.000;0.000;2022-09-09T04:45:44;5.10;;;1.53;;
28958;SDS011;16066;0.000;0.000;2022-09-09T04:48:12;7.43;;;1.70;;
28958;SDS011;16066;0.000;0.000;2022-09-09T04:50:38;4.60;;;2.13;;
28958;SDS011;16066;0.000;0.000;2022-09-09T04:53:05;5.93;;;1.90;;
28958;SDS011;16066;0.000;0.000;2022-09-09T04:55:32;4.00;;;1.83;;
28958;SDS011;16066;0.000;0.000;2022-09-09T04:58:06;3.73;;;1.70;;
28958;SDS011;16066;0.000;0.000;2022-09-09T05:00:33;6.73;;;2.20;;
28958;SDS011;16066;0.000;0.000;2022-09-09T05:03:04;5.30;;;1.33;;
28958;SDS011;16066;0.000;0.000;2022-09-09T05:05:31;2.87;;;1.40;;
28958;SDS011;16066;0.000;0.000;2022-09-09T05:08:06;2.50;;;1.30;;
28958;SDS011;16066;0.000;0.000;2022-09-09T05:10:33;5.50;;;1.70;;
28958;SDS011;16066;0.000;0.000;2022-09-09T05:13:02;3.63;;;1.50;;
28958;SDS011;16066;0.000;0.000;2022-09-09T05:15:28;4.67;;;1.80;;
28958;SDS011;16066;0.000;0.000;2022-09-09T05:17:56;3.83;;;1.77;;
28958;SDS011;16066;0.000;0.000;2022-09-09T05:20:24;3.20;;;1.73;;
28958;SDS011;16066;0.000;0.000;2022-09-09T05:22:52;3.83;;;1.63;;
28958;SDS011;16066;0.000;0.000;2022-09-09T05:25:21;3.30;;;1.83;;
28958;SDS011;16066;0.000;0.000;2022-09-09T05:27:50;3.80;;;1.60;;
28958;SDS011;16066;0.000;0.000;2022-09-09T05:30:15;5.63;;;1.70;;
28958;SDS011;16066;0.000;0.000;2022-09-09T05:32:43;5.47;;;1.70;;
28958;SDS011;16066;0.000;0.000;2022-09-09T05:35:09;5.80;;;1.67;;
28958;SDS011;16066;0.000;0.000;2022-09-09T05:37:35;4.10;;;1.80;;
28958;SDS011;16066;0.000;0.000;2022-09-09T05:40:00;4.03;;;1.50;;
28958;SDS011;16066;0.000;0.000;2022-09-09T05:42:29;5.80;;;1.53;;
28958;SDS011;16066;0.000;0.000;2022-09-09T05:44:55;4.47;;;1.70;;
28958;SDS011;16066;0.000;0.000;2022-09-09T05:47:22;4.70;;;1.80;;
28958;SDS011;16066;0.000;0.000;2022-09-09T05:49:48;3.20;;;1.63;;
28958;SDS011;16066;0.000;0.000;2022-09-09T05:52:14;5.17;;;1.80;;
28958;SDS011;16066;0.000;0.000;2022-09-09T05:54:40;2.90;;;1.30;;
28958;SDS011;16066;0.000;0.000;2022-09-09T05:57:07;4.37;;;1.87;;
28958;SDS011;16066;0.000;0.000;2022-09-09T05:59:33;7.03;;;1.53;;
28958;SDS011;16066;0.000;0.000;2022-09-09T06:01:59;5.37;;;1.57;;
28958;SDS011;16066;0.000;0.000;2022-09-09T06:04:24;3.30;;;1.70;;
28958;SDS011;16066;0.000;0.000;2022-09-09T06:06:50;4.43;;;1.50;;
28958;SDS011;16066;0.000;0.000;2022-09-09T06:09:15;4.67;;;1.50;;
28958;SDS011;16066;0.000;0.000;2022-09-09T06:11:41;4.07;;;1.73;;
28958;SDS011;16066;0.000;0.000;2022-09-09T06:14:07;3.60;;;1.20;;
28958;SDS011;16066;0.000;0.000;2022-09-09T06:16:34;3.13;;;1.90;;
28958;SDS011;16066;0.000;0.000;2022-09-09T06:19:00;3.40;;;1.60;;
28958;SDS011;16066;0.000;0.000;2022-09-09T06:21:29;4.80;;;1.97;;
28958;SDS011;16066;0.000;0.000;2022-09-09T06:23:56;13.53;;;2.57;;
28958;SDS011;16066;0.000;0.000;2022-09-09T06:26:23;12.60;;;1.63;;
28958;SDS011;16066;0.000;0.000;2022-09-09T06:28:51;8.33;;;2.10;;
28958;SDS011;16066;0.000;0.000;2022-09-09T06:31:18;3.33;;;1.70;;
28958;SDS011;16066;0.000;0.000;2022-09-09T06:33:51;6.40;;;1.80;;
28958;SDS011;16066;0.000;0.000;2022-09-09T06:36:20;8.20;;;1.60;;
28958;SDS011;16066;0.000;0.000;2022-09-09T06:39:03;5.00;;;1.70;;
28958;SDS011;16066;0.000;0.000;2022-09-09T06:41:30;4.93;;;2.00;;
28958;SDS011;16066;0.000;0.000;2022-09-09T06:43:57;10.30;;;2.03;;
28958;SDS011;16066;0.000;0.000;2022-09-09T06:46:24;5.97;;;1.60;;
28958;SDS011;16066;0.000;0.000;2022-09-09T06:48:55;4.40;;;1.63;;
28958;SDS011;16066;0.000;0.000;2022-09-09T06:51:24;3.93;;;2.03;;
28958;SDS011;16066;0.000;0.000;2022-09-09T06:53:53;9.20;;;1.93;;
28958;SDS011;16066;0.000;0.000;2022-09-09T06:56:21;5.83;;;1.63;;
28958;SDS011;16066;0.000;0.000;2022-09-09T06:59:08;5.67;;;1.90;;
28958;SDS011;16066;0.000;0.000;2022-09-09T07:01:37;6.10;;;1.90;;
28958;SDS011;16066;0.000;0.000;2022-09-09T07:04:05;5.53;;;1.60;;
28958;SDS011;16066;0.000;0.000;2022-09-09T07:06:39;4.80;;;1.73;;
28958;SDS011;16066;0.000;0.000;2022-09-09T07:09:08;3.47;;;2.10;;
28958;SDS011;16066;0.000;0.000;2022-09-09T07:11:39;3.43;;;1.40;;
28958;SDS011;16066;0.000;0.000;2022-09-09T07:14:10;4.13;;;1.33;;
28958;SDS011;16066;0.000;0.000;2022-09-09T07:16:39;5.47;;;1.60;;
28958;SDS011;16066;0.000;0.000;2022-09-09T07:19:05;6.47;;;1.80;;
28958;SDS011;16066;0.000;0.000;2022-09-09T07:21:31;4.00;;;1.60;;
28958;SDS011;16066;0.000;0.000;2022-09-09T07:23:58;2.00;;;1.40;;
28958;SDS011;16066;0.000;0.000;2022-09-09T07:26:25;3.37;;;1.77;;
28958;SDS011;16066;0.000;0.000;2022-09-09T07:28:53;5.50;;;1.57;;
28958;SDS011;16066;0.000;0.000;2022-09-09T07:31:21;4.10;;;1.50;;
28958;SDS011;16066;0.000;0.000;2022-09-09T07:33:57;5.73;;;1.70;;
28958;SDS011;16066;0.000;0.000;2022-09-09T07:36:25;8.70;;;2.20;;
28958;SDS011;16066;0.000;0.000;2022-09-09T07:38:59;7.53;;;1.83;;
28958;SDS011;16066;0.000;0.000;2022-09-09T07:41:34;6.73;;;1.70;;
28958;SDS011;16066;0.000;0.000;2022-09-09T07:44:04;4.30;;;1.67;;
28958;SDS011;16066;0.000;0.000;2022-09-09T07:46:35;3.37;;;1.40;;
28958;SDS011;16066;0.000;0.000;2022-09-09T07:49:01;4.43;;;1.50;;
28958;SDS011;16066;0.000;0.000;2022-09-09T07:51:29;7.17;;;2.00;;
28958;SDS011;16066;0.000;0.000;2022-09-09T07:53:58;6.00;;;1.73;;
28958;SDS011;16066;0.000;0.000;2022-09-09T07:56:25;7.73;;;2.07;;
28958;SDS011;16066;0.000;0.000;2022-09-09T07:58:53;4.83;;;1.80;;
28958;SDS011;16066;0.000;0.000;2022-09-09T08:01:24;2.90;;;1.27;;
28958;SDS011;16066;0.000;0.000;2022-09-09T08:04:00;6.03;;;1.60;;
28958;SDS011;16066;0.000;0.000;2022-09-09T08:06:27;4.37;;;1.60;;
28958;SDS011;16066;0.000;0.000;2022-09-09T08:08:54;2.93;;;1.73;;
28958;SDS011;16066;0.000;0.000;2022-09-09T08:11:21;4.47;;;1.83;;
28958;SDS011;16066;0.000;0.000;2022-09-09T08:13:48;5.80;;;1.73;;
28958;SDS011;16066;0.000;0.000;2022-09-09T08:16:15;4.90;;;2.10;;
28958;SDS011;16066;0.000;0.000;2022-09-09T08:18:47;7.47;;;1.80;;
28958;SDS011;16066;0.000;0.000;2022-09-09T08:21:15;4.90;;;1.60;;
28958;SDS011;16066;0.000;0.000;2022-09-09T08:23:43;4.37;;;1.83;;
28958;SDS011;16066;0.000;0.000;2022-09-09T08:26:14;7.13;;;1.90;;
28958;SDS011;16066;0.000;0.000;2022-09-09T08:28:41;2.93;;;1.50;;
28958;SDS011;16066;0.000;0.000;2022-09-09T08:31:09;5.17;;;1.70;;
28958;SDS011;16066;0.000;0.000;2022-09-09T08:33:40;3.60;;;1.50;;
28958;SDS011;16066;0.000;0.000;2022-09-09T08:36:08;5.70;;;2.00;;
28958;SDS011;16066;0.000;0.000;2022-09-09T08:38:36;4.40;;;1.33;;
28958;SDS011;16066;0.000;0.000;2022-09-09T08:44:07;8.07;;;2.30;;
28958;SDS011;16066;0.000;0.000;2022-09-09T08:47:00;4.03;;;1.60;;
28958;SDS011;16066;0.000;0.000;2022-09-09T08:52:03;5.53;;;1.77;;
28958;SDS011;16066;0.000;0.000;2022-09-09T08:54:40;6.73;;;2.17;;
28958;SDS011;16066;0.000;0.000;2022-09-09T08:57:09;12.60;;;2.87;;
28958;SDS011;16066;0.000;0.000;2022-09-09T08:59:43;7.30;;;1.70;;
28958;SDS011;16066;0.000;0.000;2022-09-09T09:02:23;3.37;;;1.53;;
28958;SDS011;16066;0.000;0.000;2022-09-09T09:05:15;3.80;;;2.00;;
28958;SDS011;16066;0.000;0.000;2022-09-09T09:08:17;5.40;;;1.80;;
28958;SDS011;16066;0.000;0.000;2022-09-09T09:10:51;4.10;;;1.83;;
28958;SDS011;16066;0.000;0.000;2022-09-09T09:15:58;4.93;;;1.70;;
28958;SDS011;16066;0.000;0.000;2022-09-09T09:18:31;7.60;;;2.13;;
28958;SDS011;16066;0.000;0.000;2022-09-09T09:24:18;5.60;;;2.30;;
28958;SDS011;16066;0.000;0.000;2022-09-09T09:26:32;5.87;;;2.50;;
28958;SDS011;16066;0.000;0.000;2022-09-09T09:29:00;2.90;;;1.77;;
28958;SDS011;16066;0.000;0.000;2022-09-09T09:31:37;6.60;;;1.90;;
28958;SDS011;16066;0.000;0.000;2022-09-09T09:34:02;8.10;;;1.90;;
28958;SDS011;16066;0.000;0.000;2022-09-09T09:36:38;10.13;;;1.83;;
28958;SDS011;16066;0.000;0.000;2022-09-09T09:39:06;5.60;;;2.17;;
28958;SDS011;16066;0.000;0.000;2022-09-09T09:41:33;6.80;;;2.30;;
28958;SDS011;16066;0.000;0.000;2022-09-09T09:44:03;5.50;;;1.80;;
28958;SDS011;16066;0.000;0.000;2022-09-09T09:46:30;7.23;;;2.60;;
28958;SDS011;16066;0.000;0.000;2022-09-09T09:49:05;3.77;;;1.50;;
28958;SDS011;16066;0.000;0.000;2022-09-09T09:51:34;7.70;;;2.50;;
28958;SDS011;16066;0.000;0.000;2022-09-09T09:56:40;3.50;;;1.87;;
28958;SDS011;16066;0.000;0.000;2022-09-09T09:59:18;5.13;;;2.07;;
28958;SDS011;16066;0.000;0.000;2022-09-09T10:01:53;5.07;;;2.07;;
28958;SDS011;16066;0.000;0.000;2022-09-09T10:04:20;4.70;;;2.00;;
28958;SDS011;16066;0.000;0.000;2022-09-09T10:06:48;6.73;;;1.53;;
28958;SDS011;16066;0.000;0.000;2022-09-09T10:09:28;14.23;;;2.83;;
28958;SDS011;16066;0.000;0.000;2022-09-09T10:12:11;4.60;;;1.90;;
28958;SDS011;16066;0.000;0.000;2022-09-09T10:15:02;3.40;;;1.60;;
28958;SDS011;16066;0.000;0.000;2022-09-09T10:18:08;4.87;;;1.97;;
28958;SDS011;16066;0.000;0.000;2022-09-09T10:20:53;3.30;;;1.60;;
28958;SDS011;16066;0.000;0.000;2022-09-09T10:30:08;5.77;;;1.70;;
28958;SDS011;16066;0.000;0.000;2022-09-09T10:34:56;3.30;;;1.50;;
28958;SDS011;16066;0.000;0.000;2022-09-09T10:40:41;6.97;;;1.47;;
28958;SDS011;16066;0.000;0.000;2022-09-09T10:48:31;2.83;;;1.80;;
28958;SDS011;16066;0.000;0.000;2022-09-09T10:56:44;5.27;;;1.70;;
28958;SDS011;16066;0.000;0.000;2022-09-09T10:59:16;5.77;;;1.53;;
28958;SDS011;16066;0.000;0.000;2022-09-09T11:01:48;3.67;;;1.40;;
28958;SDS011;16066;0.000;0.000;2022-09-09T11:04:29;4.33;;;1.50;;
28958;SDS011;16066;0.000;0.000;2022-09-09T11:06:59;3.03;;;1.37;;
28958;SDS011;16066;0.000;0.000;2022-09-09T11:09:31;3.50;;;1.47;;
28958;SDS011;16066;0.000;0.000;2022-09-09T11:12:01;3.90;;;1.37;;
28958;SDS011;16066;0.000;0.000;2022-09-09T11:17:10;3.47;;;1.83;;
28958;SDS011;16066;0.000;0.000;2022-09-09T11:19:43;2.77;;;1.37;;
28958;SDS011;16066;0.000;0.000;2022-09-09T11:39:35;4.70;;;1.80;;
28958;SDS011;16066;0.000;0.000;2022-09-09T11:42:08;6.57;;;1.67;;
28958;SDS011;16066;0.000;0.000;2022-09-09T11:44:43;4.80;;;1.30;;
28958;SDS011;16066;0.000;0.000;2022-09-09T11:47:28;3.90;;;1.67;;
28958;SDS011;16066;0.000;0.000;2022-09-09T11:50:24;3.57;;;1.43;;
28958;SDS011;16066;0.000;0.000;2022-09-09T11:55:45;3.67;;;1.50;;
28958;SDS011;16066;0.000;0.000;2022-09-09T12:06:17;4.60;;;1.83;;
28958;SDS011;16066;0.000;0.000;2022-09-09T12:08:46;3.10;;;1.30;;
28958;SDS011;16066;0.000;0.000;2022-09-09T12:11:25;2.07;;;1.27;;
28958;SDS011;16066;0.000;0.000;2022-09-09T12:13:53;3.87;;;1.50;;
28958;SDS011;16066;0.000;0.000;2022-09-09T12:16:34;6.77;;;2.07;;
28958;SDS011;16066;0.000;0.000;2022-09-09T12:21:36;2.70;;;1.50;;
28958;SDS011;16066;0.000;0.000;2022-09-09T12:24:09;5.03;;;1.43;;
28958;SDS011;16066;0.000;0.000;2022-09-09T12:32:14;1.47;;;1.13;;
28958;SDS011;16066;0.000;0.000;2022-09-09T12:37:43;4.43;;;1.47;;
28958;SDS011;16066;0.000;0.000;2022-09-09T12:42:44;3.03;;;1.53;;
28958;SDS011;16066;0.000;0.000;2022-09-09T12:45:20;4.50;;;2.13;;
28958;SDS011;16066;0.000;0.000;2022-09-09T12:47:54;4.83;;;1.60;;
28958;SDS011;16066;0.000;0.000;2022-09-09T12:50:29;4.03;;;1.40;;
28958;SDS011;16066;0.000;0.000;2022-09-09T12:58:24;6.43;;;1.57;;
28958;SDS011;16066;0.000;0.000;2022-09-09T13:00:53;3.63;;;1.53;;
28958;SDS011;16066;0.000;0.000;2022-09-09T13:03:24;3.70;;;1.40;;
28958;SDS011;16066;0.000;0.000;2022-09-09T13:05:51;4.10;;;1.63;;
28958;SDS011;16066;0.000;0.000;2022-09-09T13:08:18;2.10;;;1.50;;
28958;SDS011;16066;0.000;0.000;2022-09-09T13:13:14;5.07;;;1.57;;
28958;SDS011;16066;0.000;0.000;2022-09-09T13:15:49;3.30;;;1.37;;
28958;SDS011;16066;0.000;0.000;2022-09-09T13:18:24;3.03;;;1.60;;
28958;SDS011;16066;0.000;0.000;2022-09-09T13:20:52;4.43;;;1.80;;
28958;SDS011;16066;0.000;0.000;2022-09-09T13:23:18;5.27;;;1.40;;
28958;SDS011;16066;0.000;0.000;2022-09-09T13:25:58;5.97;;;1.73;;
28958;SDS011;16066;0.000;0.000;2022-09-09T13:28:27;5.20;;;2.20;;
28958;SDS011;16066;0.000;0.000;2022-09-09T13:33:28;3.13;;;1.70;;
28958;SDS011;16066;0.000;0.000;2022-09-09T13:36:05;6.43;;;1.80;;
28958;SDS011;16066;0.000;0.000;2022-09-09T13:38:36;4.60;;;1.80;;
28958;SDS011;16066;0.000;0.000;2022-09-09T13:41:21;3.47;;;1.60;;
28958;SDS011;16066;0.000;0.000;2022-09-09T13:43:49;3.50;;;1.87;;
28958;SDS011;16066;0.000;0.000;2022-09-09T13:46:26;3.50;;;1.77;;
28958;SDS011;16066;0.000;0.000;2022-09-09T13:48:58;7.13;;;1.87;;
28958;SDS011;16066;0.000;0.000;2022-09-09T13:51:35;5.53;;;2.73;;
28958;SDS011;16066;0.000;0.000;2022-09-09T13:54:12;3.00;;;1.70;;
28958;SDS011;16066;0.000;0.000;2022-09-09T13:56:39;7.73;;;2.40;;
28958;SDS011;16066;0.000;0.000;2022-09-09T13:59:09;3.37;;;2.00;;
28958;SDS011;16066;0.000;0.000;2022-09-09T14:01:37;4.00;;;1.53;;
28958;SDS011;16066;0.000;0.000;2022-09-09T14:04:03;5.07;;;2.00;;
28958;SDS011;16066;0.000;0.000;2022-09-09T14:06:31;3.47;;;1.93;;
28958;SDS011;16066;0.000;0.000;2022-09-09T14:08:57;5.77;;;2.10;;
28958;SDS011;16066;0.000;0.000;2022-09-09T14:11:23;3.00;;;2.00;;
28958;SDS011;16066;0.000;0.000;2022-09-09T14:13:49;5.50;;;2.23;;
28958;SDS011;16066;0.000;0.000;2022-09-09T14:16:15;4.70;;;1.90;;
28958;SDS011;16066;0.000;0.000;2022-09-09T14:18:42;3.80;;;1.80;;
28958;SDS011;16066;0.000;0.000;2022-09-09T14:21:08;3.70;;;1.70;;
28958;SDS011;16066;0.000;0.000;2022-09-09T14:23:34;4.20;;;1.97;;
28958;SDS011;16066;0.000;0.000;2022-09-09T14:26:00;4.23;;;2.23;;
28958;SDS011;16066;0.000;0.000;2022-09-09T14:28:26;6.90;;;2.00;;
28958;SDS011;16066;0.000;0.000;2022-09-09T14:30:51;3.60;;;1.80;;
28958;SDS011;16066;0.000;0.000;2022-09-09T14:33:17;2.30;;;1.40;;
28958;SDS011;16066;0.000;0.000;2022-09-09T14:35:42;2.87;;;1.53;;
28958;SDS011;16066;0.000;0.000;2022-09-09T14:38:09;3.63;;;1.80;;
28958;SDS011;16066;0.000;0.000;2022-09-09T14:40:35;5.90;;;1.90;;
28958;SDS011;16066;0.000;0.000;2022-09-09T14:43:02;4.57;;;1.60;;
28958;SDS011;16066;0.000;0.000;2022-09-09T14:45:28;4.07;;;1.70;;
28958;SDS011;16066;0.000;0.000;2022-09-09T14:47:54;2.70;;;1.70;;
28958;SDS011;16066;0.000;0.000;2022-09-09T14:50:20;2.47;;;2.00;;
28958;SDS011;16066;0.000;0.000;2022-09-09T14:52:46;6.70;;;1.67;;
28958;SDS011;16066;0.000;0.000;2022-09-09T14:55:12;5.80;;;1.70;;
28958;SDS011;16066;0.000;0.000;2022-09-09T14:57:40;3.17;;;1.60;;
28958;SDS011;16066;0.000;0.000;2022-09-09T15:00:06;3.80;;;1.30;;
28958;SDS011;16066;0.000;0.000;2022-09-09T15:02:33;7.60;;;1.57;;
28958;SDS011;16066;0.000;0.000;2022-09-09T15:04:59;2.30;;;1.50;;
28958;SDS011;16066;0.000;0.000;2022-09-09T15:07:26;3.07;;;1.77;;
28958;SDS011;16066;0.000;0.000;2022-09-09T15:09:53;2.83;;;1.60;;
28958;SDS011;16066;0.000;0.000;2022-09-09T15:12:19;2.73;;;1.50;;
28958;SDS011;16066;0.000;0.000;2022-09-09T15:14:45;3.00;;;1.40;;
28958;SDS011;16066;0.000;0.000;2022-09-09T15:17:11;8.57;;;1.80;;
28958;SDS011;16066;0.000;0.000;2022-09-09T15:19:37;3.73;;;1.50;;
28958;SDS011;16066;0.000;0.000;2022-09-09T15:22:03;5.70;;;1.60;;
28958;SDS011;16066;0.000;0.000;2022-09-09T15:24:32;4.80;;;1.40;;
28958;SDS011;16066;0.000;0.000;2022-09-09T15:26:58;2.60;;;1.47;;
28958;SDS011;16066;0.000;0.000;2022-09-09T15:29:24;3.80;;;1.50;;
28958;SDS011;16066;0.000;0.000;2022-09-09T15:31:50;2.57;;;1.30;;
28958;SDS011;16066;0.000;0.000;2022-09-09T15:34:15;3.00;;;1.47;;
28958;SDS011;16066;0.000;0.000;2022-09-09T15:36:42;2.27;;;1.30;;
28958;SDS011;16066;0.000;0.000;2022-09-09T15:39:11;3.43;;;1.33;;
28958;SDS011;16066;0.000;0.000;2022-09-09T15:41:40;6.00;;;1.20;;
28958;SDS011;16066;0.000;0.000;2022-09-09T15:44:06;2.70;;;1.30;;
28958;SDS011;16066;0.000;0.000;2022-09-09T15:51:37;4.37;;;1.30;;
28958;SDS011;16066;0.000;0.000;2022-09-09T15:54:04;6.30;;;2.53;;
28958;SDS011;16066;0.000;0.000;2022-09-09T15:56:30;5.90;;;2.80;;
28958;SDS011;16066;0.000;0.000;2022-09-09T15:58:57;3.70;;;2.27;;
28958;SDS011;16066;0.000;0.000;2022-09-09T16:01:24;4.60;;;2.23;;
28958;SDS011;16066;0.000;0.000;2022-09-09T16:03:51;5.80;;;2.50;;
28958;SDS011;16066;0.000;0.000;2022-09-09T16:06:18;4.23;;;2.17;;
28958;SDS011;16066;0.000;0.000;2022-09-09T16:08:46;5.90;;;2.50;;
28958;SDS011;16066;0.000;0.000;2022-09-09T16:11:16;3.90;;;2.60;;
28958;SDS011;16066;0.000;0.000;2022-09-09T16:13:44;8.40;;;4.07;;
28958;SDS011;16066;0.000;0.000;2022-09-09T16:16:12;11.60;;;6.03;;
28958;SDS011;16066;0.000;0.000;2022-09-09T16:18:39;7.00;;;4.73;;
28958;SDS011;16066;0.000;0.000;2022-09-09T16:21:13;4.57;;;3.37;;
28958;SDS011;16066;0.000;0.000;2022-09-09T16:23:39;3.27;;;2.97;;
28958;SDS011;16066;0.000;0.000;2022-09-09T16:26:05;6.13;;;3.27;;
28958;SDS011;16066;0.000;0.000;2022-09-09T16:28:31;9.10;;;4.03;;
28958;SDS011;16066;0.000;0.000;2022-09-09T16:30:56;5.40;;;3.40;;
28958;SDS011;16066;0.000;0.000;2022-09-09T16:33:23;5.47;;;3.40;;
28958;SDS011;16066;0.000;0.000;2022-09-09T16:35:50;5.60;;;3.07;;
28958;SDS011;16066;0.000;0.000;2022-09-09T16:38:16;7.10;;;3.97;;
28958;SDS011;16066;0.000;0.000;2022-09-09T16:40:41;90.77;;;57.80;;
28958;SDS011;16066;0.000;0.000;2022-09-09T16:43:07;701.47;;;547.50;;
28958;SDS011;16066;0.000;0.000;2022-09-09T16:45:40;634.10;;;511.13;;
28958;SDS011;16066;0.000;0.000;2022-09-09T16:48:10;429.83;;;308.77;;
28958;SDS011;16066;0.000;0.000;2022-09-09T16:50:36;259.60;;;181.07;;
28958;SDS011;16066;0.000;0.000;2022-09-09T16:53:02;180.23;;;122.80;;
28958;SDS011;16066;0.000;0.000;2022-09-09T16:55:28;165.77;;;115.67;;
28958;SDS011;16066;0.000;0.000;2022-09-09T16:57:54;150.63;;;100.60;;
28958;SDS011;16066;0.000;0.000;2022-09-09T17:00:20;126.33;;;84.93;;
28958;SDS011;16066;0.000;0.000;2022-09-09T17:02:48;74.43;;;53.47;;
28958;SDS011;16066;0.000;0.000;2022-09-09T17:05:13;45.27;;;31.20;;
28958;SDS011;16066;0.000;0.000;2022-09-09T17:07:39;29.20;;;20.53;;
28958;SDS011;16066;0.000;0.000;2022-09-09T17:10:05;20.00;;;13.90;;
28958;SDS011;16066;0.000;0.000;2022-09-09T17:12:31;11.60;;;7.17;;
28958;SDS011;16066;0.000;0.000;2022-09-09T17:14:57;9.33;;;5.80;;
28958;SDS011;16066;0.000;0.000;2022-09-09T17:17:24;12.30;;;6.50;;
28958;SDS011;16066;0.000;0.000;2022-09-09T17:19:51;8.00;;;4.37;;
28958;SDS011;16066;0.000;0.000;2022-09-09T17:22:17;9.27;;;4.33;;
28958;SDS011;16066;0.000;0.000;2022-09-09T17:24:43;11.93;;;4.27;;
28958;SDS011;16066;0.000;0.000;2022-09-09T17:27:09;6.07;;;3.80;;
28958;SDS011;16066;0.000;0.000;2022-09-09T17:29:34;5.67;;;3.13;;
28958;SDS011;16066;0.000;0.000;2022-09-09T17:32:01;5.80;;;2.70;;
28958;SDS011;16066;0.000;0.000;2022-09-09T17:34:27;7.63;;;3.10;;
28958;SDS011;16066;0.000;0.000;2022-09-09T17:36:53;3.77;;;2.70;;
28958;SDS011;16066;0.000;0.000;2022-09-09T17:39:18;5.50;;;3.00;;
28958;SDS011;16066;0.000;0.000;2022-09-09T17:41:44;6.13;;;3.00;;
28958;SDS011;16066;0.000;0.000;2022-09-09T17:44:10;3.57;;;2.67;;